createdAt,value
2023-01-08T00:01:32.523Z,4.98
2023-01-08T00:04:00.117Z,4.94
2023-01-08T00:06:27.885Z,4.97
2023-01-08T00:08:55.488Z,5.06
2023-01-08T00:11:23.035Z,5.14
2023-01-08T00:13:51.310Z,5.22
2023-01-08T00:16:20.120Z,5.29
2023-01-08T00:18:48.099Z,5.37
2023-01-08T00:21:15.731Z,5.39
2023-01-08T00:23:43.185Z,5.42
2023-01-08T00:26:11.323Z,5.42
2023-01-08T00:28:39.753Z,5.38
2023-01-08T00:31:09.647Z,5.36
2023-01-08T00:33:38.469Z,5.29
2023-01-08T00:36:11.133Z,5.21
2023-01-08T00:38:38.732Z,5.23
2023-01-08T00:41:06.522Z,5.20
2023-01-08T00:43:34.915Z,5.22
2023-01-08T00:46:02.598Z,5.27
2023-01-08T00:48:31.218Z,5.25
2023-01-08T00:50:58.747Z,5.29
2023-01-08T00:53:26.301Z,5.31
2023-01-08T00:56:04.127Z,5.27
2023-01-08T00:58:32.039Z,5.27
2023-01-08T01:00:59.616Z,5.22
2023-01-08T01:03:27.467Z,5.20
2023-01-08T01:06:05.913Z,5.16
2023-01-08T01:08:34.664Z,5.16
2023-01-08T01:11:10.054Z,5.19
2023-01-08T01:13:37.626Z,5.17
2023-01-08T01:16:05.408Z,5.19
2023-01-08T01:18:32.971Z,5.15
2023-01-08T01:21:00.586Z,5.15
2023-01-08T01:23:28.106Z,5.15
2023-01-08T01:25:55.713Z,5.15
2023-01-08T01:28:23.246Z,5.18
2023-01-08T01:30:57.227Z,5.22
2023-01-08T01:33:24.882Z,5.22
2023-01-08T01:36:03.019Z,5.20
2023-01-08T01:38:30.922Z,5.23
2023-01-08T01:40:58.891Z,5.33
2023-01-08T01:43:43.603Z,5.33
2023-01-08T01:46:20.320Z,5.28
2023-01-08T01:48:51.435Z,5.28
2023-01-08T01:51:20.624Z,5.31
2023-01-08T01:53:50.017Z,5.25
2023-01-08T01:56:17.527Z,5.22
2023-01-08T01:58:44.985Z,5.16
2023-01-08T02:01:13.356Z,5.07
2023-01-08T02:03:40.916Z,5.10
2023-01-08T02:06:35.622Z,5.11
2023-01-08T02:09:07.888Z,5.00
2023-01-08T02:11:47.458Z,4.98
2023-01-08T02:15:01.695Z,4.97
2023-01-08T02:17:38.761Z,4.94
2023-01-08T02:20:11.715Z,4.97
2023-01-08T02:22:51.586Z,4.97
2023-01-08T02:25:51.102Z,4.97
2023-01-08T02:28:19.264Z,5.00
2023-01-08T02:30:47.863Z,5.00
2023-01-08T02:33:15.648Z,5.05
2023-01-08T02:35:51.948Z,5.05
2023-01-08T02:38:19.731Z,5.01
2023-01-08T02:40:47.174Z,4.96
2023-01-08T02:43:22.015Z,4.93
2023-01-08T02:45:58.601Z,4.90
2023-01-08T02:48:49.543Z,4.84
2023-01-08T02:51:24.355Z,4.77
2023-01-08T02:53:58.546Z,4.71
2023-01-08T02:56:32.457Z,4.67
2023-01-08T02:59:00.947Z,4.67
2023-01-08T03:01:29.768Z,4.59
2023-01-08T03:04:04.232Z,4.62
2023-01-08T03:06:32.383Z,4.57
2023-01-08T03:09:00.666Z,4.54
2023-01-08T03:11:36.165Z,4.54
2023-01-08T03:14:37.780Z,4.52
2023-01-08T03:17:21.268Z,4.50
2023-01-08T03:19:59.824Z,4.47
2023-01-08T03:22:28.663Z,4.50
2023-01-08T03:24:59.484Z,4.51
2023-01-08T03:27:32.770Z,4.51
2023-01-08T03:30:00.764Z,4.50
2023-01-08T03:32:31.251Z,4.51
2023-01-08T03:35:00.853Z,4.46
2023-01-08T03:37:33.912Z,4.44
2023-01-08T03:40:07.834Z,4.43
2023-01-08T03:42:35.636Z,4.44
2023-01-08T03:45:04.054Z,4.50
2023-01-08T03:47:33.782Z,4.43
2023-01-08T03:50:04.167Z,4.32
2023-01-08T03:52:33.182Z,4.22
2023-01-08T03:55:00.731Z,4.39
2023-01-08T03:57:28.629Z,4.31
2023-01-08T03:59:56.095Z,4.27
2023-01-08T04:02:23.732Z,4.22
2023-01-08T04:04:51.294Z,4.37
2023-01-08T04:07:19.179Z,4.49
2023-01-08T04:09:47.262Z,4.68
2023-01-08T04:12:14.802Z,4.76
2023-01-08T04:14:42.316Z,4.78
2023-01-08T04:17:13.507Z,4.83
2023-01-08T04:19:41.246Z,4.93
2023-01-08T04:22:11.521Z,4.84
2023-01-08T04:24:39.027Z,4.82
2023-01-08T04:27:06.547Z,4.84
2023-01-08T04:29:34.140Z,4.88
2023-01-08T04:32:01.631Z,4.91
2023-01-08T04:34:29.316Z,4.94
2023-01-08T04:36:56.896Z,4.97
2023-01-08T04:39:24.462Z,5.01
2023-01-08T04:41:51.929Z,5.02
2023-01-08T04:44:19.554Z,5.03
2023-01-08T04:46:47.085Z,5.02
2023-01-08T04:49:14.903Z,5.06
2023-01-08T04:51:42.490Z,5.05
2023-01-08T04:54:10.142Z,5.07
2023-01-08T04:56:37.659Z,5.08
2023-01-08T04:59:05.637Z,5.09
2023-01-08T05:01:33.254Z,5.09
2023-01-08T05:04:02.954Z,5.04
2023-01-08T05:06:31.811Z,5.05
2023-01-08T05:08:59.288Z,5.04
2023-01-08T05:11:26.869Z,4.99
2023-01-08T05:13:54.405Z,4.89
2023-01-08T05:16:22.184Z,4.90
2023-01-08T05:18:50.465Z,4.91
2023-01-08T05:21:18.554Z,4.85
2023-01-08T05:23:50.305Z,4.77
2023-01-08T05:26:19.453Z,4.74
2023-01-08T05:28:47.285Z,4.67
2023-01-08T05:31:15.593Z,4.63
2023-01-08T05:33:43.455Z,4.55
2023-01-08T05:40:23.647Z,4.49
2023-01-08T05:42:51.176Z,4.50
2023-01-08T05:45:18.590Z,4.43
2023-01-08T05:47:46.173Z,4.35
2023-01-08T05:50:13.690Z,4.32
2023-01-08T05:52:41.381Z,4.27
2023-01-08T05:55:09.327Z,4.17
2023-01-08T05:57:37.068Z,4.11
2023-01-08T06:00:09.945Z,4.05
2023-01-08T06:02:40.356Z,4.06
2023-01-08T06:05:08.252Z,3.98
2023-01-08T06:07:35.919Z,4.01
2023-01-08T06:10:03.647Z,3.91
2023-01-08T06:12:31.077Z,3.85
2023-01-08T06:14:58.688Z,3.83
2023-01-08T06:17:26.250Z,3.81
2023-01-08T06:19:53.856Z,3.81
2023-01-08T06:22:21.365Z,3.80
2023-01-08T06:24:48.875Z,3.84
2023-01-08T06:27:16.403Z,3.88
2023-01-08T06:29:43.953Z,3.85
2023-01-08T06:32:11.472Z,3.85
2023-01-08T06:34:38.959Z,3.83
2023-01-08T06:37:06.425Z,3.77
2023-01-08T06:39:33.931Z,3.70
2023-01-08T06:42:01.475Z,3.72
2023-01-08T06:44:28.989Z,3.68
2023-01-08T06:46:59.259Z,3.66
2023-01-08T06:49:28.274Z,3.60
2023-01-08T06:51:55.781Z,3.61
2023-01-08T06:54:23.287Z,3.54
2023-01-08T06:56:53.896Z,3.56
2023-01-08T06:59:22.474Z,3.56
2023-01-08T07:01:51.031Z,3.56
2023-01-08T07:04:19.831Z,3.59
2023-01-08T07:06:47.887Z,3.60
2023-01-08T07:09:16.289Z,3.63
2023-01-08T07:11:43.799Z,3.70
2023-01-08T07:14:11.690Z,3.77
2023-01-08T07:16:39.385Z,3.83
2023-01-08T07:19:06.993Z,3.90
2023-01-08T07:21:34.564Z,3.94
2023-01-08T07:24:02.065Z,3.99
2023-01-08T07:26:29.571Z,4.06
2023-01-08T07:28:57.173Z,4.14
2023-01-08T07:31:24.944Z,4.22
2023-01-08T07:33:52.549Z,4.34
2023-01-08T07:36:22.627Z,4.39
2023-01-08T07:38:50.587Z,4.53
2023-01-08T07:41:18.542Z,4.71
2023-01-08T07:43:48.390Z,4.86
2023-01-08T07:46:16.587Z,4.87
2023-01-08T07:48:44.273Z,5.05
2023-01-08T07:51:11.913Z,5.23
2023-01-08T07:53:39.628Z,5.38
2023-01-08T07:56:10.134Z,5.33
2023-01-08T07:58:38.253Z,5.33
2023-01-08T08:01:10.189Z,5.29
2023-01-08T08:03:41.611Z,5.37
2023-01-08T08:06:09.651Z,5.47
2023-01-08T08:08:37.159Z,5.57
2023-01-08T08:11:04.812Z,5.66
2023-01-08T08:13:32.442Z,5.58
2023-01-08T08:16:04.285Z,5.63
2023-01-08T08:18:31.951Z,5.63
2023-01-08T08:20:59.452Z,5.65
2023-01-08T08:23:27.081Z,5.55
2023-01-08T08:25:54.593Z,5.49
2023-01-08T08:28:22.221Z,5.52
2023-01-08T08:30:51.717Z,5.55
2023-01-08T08:33:19.384Z,5.56
2023-01-08T08:35:51.236Z,5.56
2023-01-08T08:38:18.960Z,5.65
2023-01-08T08:40:46.491Z,5.82
2023-01-08T08:43:14.072Z,5.87
2023-01-08T08:45:41.629Z,6.06
2023-01-08T08:48:09.728Z,6.27
2023-01-08T08:50:38.612Z,6.57
2023-01-08T08:53:07.194Z,6.76
2023-01-08T08:55:34.989Z,6.77
2023-01-08T08:58:13.405Z,6.66
2023-01-08T09:00:42.338Z,6.58
2023-01-08T09:03:14.626Z,6.58
2023-01-08T09:05:45.498Z,6.53
2023-01-08T09:08:13.220Z,6.52
2023-01-08T09:10:42.448Z,6.44
2023-01-08T09:13:10.511Z,6.48
2023-01-08T09:15:38.498Z,6.48
2023-01-08T09:18:06.063Z,6.54
2023-01-08T09:20:33.759Z,6.48
2023-01-08T09:23:03.335Z,6.54
2023-01-08T09:25:31.489Z,6.46
2023-01-08T09:28:04.460Z,6.59
2023-01-08T09:30:32.804Z,6.69
2023-01-08T09:33:02.916Z,6.63
2023-01-08T09:35:34.355Z,6.66
2023-01-08T09:38:01.940Z,6.81
2023-01-08T09:40:35.731Z,6.82
2023-01-08T09:43:04.062Z,6.58
2023-01-08T09:45:33.043Z,6.53
2023-01-08T09:48:04.723Z,6.43
2023-01-08T09:50:33.188Z,6.27
2023-01-08T09:53:00.816Z,6.10
2023-01-08T09:55:32.666Z,6.06
2023-01-08T09:58:03.027Z,6.13
2023-01-08T10:00:34.113Z,6.14
2023-01-08T10:03:01.826Z,6.11
2023-01-08T10:05:30.069Z,6.10
2023-01-08T10:07:57.999Z,6.04
2023-01-08T10:10:32.695Z,6.01
2023-01-08T10:13:00.695Z,6.03
2023-01-08T10:15:28.211Z,5.97
2023-01-08T10:17:58.387Z,6.07
2023-01-08T10:20:26.887Z,6.05
2023-01-08T10:22:55.129Z,6.05
2023-01-08T10:25:26.167Z,6.07
2023-01-08T10:28:03.488Z,6.07
2023-01-08T10:30:30.881Z,6.06
2023-01-08T10:33:04.589Z,6.12
2023-01-08T10:35:35.933Z,6.08
2023-01-08T10:38:04.010Z,6.12
2023-01-08T10:40:47.137Z,6.22
2023-01-08T10:43:26.235Z,6.32
2023-01-08T10:46:00.368Z,6.38
2023-01-08T10:48:51.513Z,6.50
2023-01-08T10:51:23.817Z,6.51
2023-01-08T10:53:53.026Z,6.51
2023-01-08T10:56:23.544Z,6.57
2023-01-08T10:58:53.438Z,6.60
2023-01-08T11:01:23.685Z,6.66
2023-01-08T11:03:54.191Z,6.69
2023-01-08T11:06:27.919Z,6.80
2023-01-08T11:08:59.740Z,6.71
2023-01-08T11:11:38.370Z,6.73
2023-01-08T11:14:35.231Z,6.67
2023-01-08T11:17:11.757Z,6.49
2023-01-08T11:19:40.121Z,6.49
2023-01-08T11:22:25.199Z,6.39
2023-01-08T11:24:53.596Z,6.22
2023-01-08T11:27:27.071Z,6.17
2023-01-08T11:30:06.455Z,6.05
2023-01-08T11:32:37.148Z,6.01
2023-01-08T11:35:13.750Z,5.93
2023-01-08T11:37:46.911Z,5.92
2023-01-08T11:40:39.422Z,5.83
2023-01-08T11:43:18.370Z,5.80
2023-01-08T11:45:57.886Z,5.64
2023-01-08T11:48:32.101Z,5.63
2023-01-08T11:51:19.101Z,5.64
2023-01-08T11:53:51.767Z,5.58
2023-01-08T11:56:44.319Z,5.61
2023-01-08T11:59:29.885Z,5.70
2023-01-08T12:02:19.065Z,5.75
2023-01-08T12:05:09.434Z,5.72
2023-01-08T12:08:02.517Z,5.72
2023-01-08T12:11:04.508Z,5.75
2023-01-08T12:14:13.791Z,5.64
2023-01-08T12:16:48.612Z,5.69
2023-01-08T12:20:01.789Z,5.71
2023-01-08T12:22:43.392Z,5.88
2023-01-08T12:25:26.417Z,6.00
2023-01-08T12:28:35.982Z,6.11
2023-01-08T12:31:33.890Z,6.05
2023-01-08T12:34:09.837Z,5.96
2023-01-08T12:36:42.869Z,5.83
2023-01-08T12:39:16.146Z,5.63
2023-01-08T12:41:45.594Z,5.52
2023-01-08T12:44:22.749Z,5.39
2023-01-08T12:46:52.056Z,5.31
2023-01-08T12:49:29.110Z,5.22
2023-01-08T12:52:07.632Z,5.16
2023-01-08T12:54:44.358Z,5.16
2023-01-08T12:57:25.305Z,5.21
2023-01-08T13:00:31.004Z,5.15
2023-01-08T13:03:02.700Z,5.12
2023-01-08T13:05:38.033Z,5.11
2023-01-08T13:08:29.827Z,5.14
2023-01-08T13:10:57.528Z,5.12
2023-01-08T13:13:34.294Z,5.14
2023-01-08T13:16:19.935Z,5.19
2023-01-08T13:18:56.864Z,5.17
2023-01-08T13:21:33.057Z,5.17
2023-01-08T13:24:06.940Z,5.22
2023-01-08T13:26:37.127Z,5.18
2023-01-08T13:29:23.849Z,5.15
2023-01-08T13:31:51.846Z,5.04
2023-01-08T13:34:22.730Z,5.02
2023-01-08T13:36:58.036Z,4.95
2023-01-08T13:39:36.730Z,4.86
2023-01-08T13:42:23.989Z,4.90
2023-01-08T13:44:57.813Z,4.92
2023-01-08T13:47:25.242Z,4.93
2023-01-08T13:49:54.938Z,4.94
2023-01-08T13:52:43.474Z,5.00
2023-01-08T13:55:21.338Z,5.02
2023-01-08T13:57:55.080Z,5.07
2023-01-08T14:00:47.830Z,5.09
2023-01-08T14:03:28.495Z,5.12
2023-01-08T14:06:06.926Z,5.08
2023-01-08T14:08:34.938Z,5.07
2023-01-08T14:11:04.208Z,5.03
2023-01-08T14:13:35.790Z,4.97
2023-01-08T14:16:05.945Z,4.97
2023-01-08T14:18:34.547Z,4.97
2023-01-08T14:21:03.607Z,5.01
2023-01-08T14:23:46.467Z,4.91
2023-01-08T14:26:21.914Z,4.89
2023-01-08T14:28:53.919Z,4.77
2023-01-08T14:31:24.033Z,4.72
2023-01-08T14:33:53.568Z,4.64
2023-01-08T14:36:22.192Z,4.56
2023-01-08T14:38:52.992Z,4.50
2023-01-08T14:41:20.473Z,4.35
2023-01-08T14:43:50.025Z,4.32
2023-01-08T14:46:30.452Z,4.29
2023-01-08T14:48:58.612Z,4.20
2023-01-08T14:51:29.584Z,4.21
2023-01-08T14:54:03.667Z,4.08
2023-01-08T14:56:34.109Z,4.02
2023-01-08T14:59:08.468Z,3.97
2023-01-08T15:01:37.407Z,3.87
2023-01-08T15:04:17.992Z,3.88
2023-01-08T15:06:46.684Z,3.82
2023-01-08T15:09:34.620Z,3.83
2023-01-08T15:12:04.735Z,3.85
2023-01-08T15:14:37.433Z,3.81
2023-01-08T15:17:15.489Z,3.84
2023-01-08T15:19:49.634Z,3.86
2023-01-08T15:22:24.332Z,3.81
2023-01-08T15:25:03.187Z,3.86
2023-01-08T15:27:37.171Z,3.89
2023-01-08T15:30:09.256Z,3.88
2023-01-08T15:32:39.045Z,3.97
2023-01-08T15:35:18.750Z,3.99
2023-01-08T15:37:46.714Z,4.01
2023-01-08T15:40:14.564Z,3.98
2023-01-08T15:43:02.863Z,4.01
2023-01-08T15:45:33.924Z,4.02
2023-01-08T15:48:01.598Z,4.04
2023-01-08T15:50:32.560Z,4.04
2023-01-08T15:53:01.397Z,4.08
2023-01-08T15:55:28.888Z,4.03
2023-01-08T15:57:56.442Z,3.99
2023-01-08T16:00:24.330Z,4.05
2023-01-08T16:02:53.790Z,4.01
2023-01-08T16:05:24.288Z,3.99
2023-01-08T16:07:52.203Z,4.02
2023-01-08T16:10:20.340Z,3.99
2023-01-08T16:12:47.907Z,3.96
2023-01-08T16:15:16.018Z,4.01
2023-01-08T16:17:44.530Z,3.99
2023-01-08T16:20:13.933Z,4.01
2023-01-08T16:22:41.875Z,4.06
2023-01-08T16:25:09.900Z,4.04
2023-01-08T16:27:38.510Z,4.06
2023-01-08T16:30:08.237Z,4.04
2023-01-08T16:32:35.809Z,4.02
2023-01-08T16:35:03.483Z,4.06
2023-01-08T16:37:31.591Z,4.03
2023-01-08T16:39:59.045Z,3.98
2023-01-08T16:42:26.712Z,4.04
2023-01-08T16:44:54.138Z,4.06
2023-01-08T16:47:21.938Z,4.06
2023-01-08T16:49:50.609Z,4.03
2023-01-08T16:52:18.725Z,4.05
2023-01-08T16:54:47.554Z,4.02
2023-01-08T16:57:15.096Z,4.09
2023-01-08T16:59:42.768Z,4.10
2023-01-08T17:02:10.808Z,4.08
2023-01-08T17:04:38.516Z,4.07
2023-01-08T17:07:06.807Z,4.10
2023-01-08T17:09:34.404Z,4.07
2023-01-08T17:12:02.170Z,4.04
2023-01-08T17:14:29.736Z,4.08
2023-01-08T17:16:57.319Z,4.11
2023-01-08T17:19:24.703Z,4.12
2023-01-08T17:21:52.348Z,4.08
2023-01-08T17:24:19.999Z,4.05
2023-01-08T17:26:48.141Z,4.05
2023-01-08T17:29:15.583Z,4.04
2023-01-08T17:31:43.212Z,4.09
2023-01-08T17:34:14.226Z,4.07
2023-01-08T17:36:43.071Z,4.09
2023-01-08T17:39:12.522Z,4.06
2023-01-08T17:41:58.530Z,4.08
2023-01-08T17:44:26.649Z,4.07
2023-01-08T17:46:54.092Z,4.12
2023-01-08T17:49:21.650Z,4.13
2023-01-08T17:51:49.119Z,4.13
2023-01-08T17:54:17.361Z,4.08
2023-01-08T17:56:45.012Z,4.10
2023-01-08T17:59:17.879Z,4.05
2023-01-08T18:01:46.189Z,4.10
2023-01-08T18:04:14.829Z,4.06
2023-01-08T18:06:43.249Z,4.02
2023-01-08T18:09:12.621Z,4.01
2023-01-08T18:11:41.904Z,3.95
2023-01-08T18:14:12.045Z,3.91
2023-01-08T18:16:40.430Z,3.90
2023-01-08T18:19:08.419Z,3.93
2023-01-08T18:21:35.979Z,3.97
2023-01-08T18:24:03.640Z,4.06
2023-01-08T18:26:31.257Z,4.02
2023-01-08T18:28:58.739Z,4.01
2023-01-08T18:31:26.406Z,3.93
2023-01-08T18:33:53.827Z,3.90
2023-01-08T18:36:22.405Z,3.88
2023-01-08T18:38:51.089Z,3.96
2023-01-08T18:41:39.338Z,3.87
2023-01-08T18:44:08.224Z,3.93
2023-01-08T18:46:36.022Z,3.97
2023-01-08T18:49:04.267Z,3.94
2023-01-08T18:51:31.748Z,3.88
2023-01-08T18:53:59.728Z,3.87
2023-01-08T18:56:30.474Z,3.86
2023-01-08T18:58:58.472Z,3.87
2023-01-08T19:01:26.583Z,3.82
2023-01-08T19:03:55.799Z,3.82
2023-01-08T19:06:24.495Z,3.80
2023-01-08T19:08:52.456Z,3.82
2023-01-08T19:11:20.430Z,3.80
2023-01-08T19:13:48.027Z,3.81
2023-01-08T19:16:18.914Z,3.83
2023-01-08T19:18:46.546Z,3.84
2023-01-08T19:21:14.993Z,3.85
2023-01-08T19:23:42.599Z,3.88
2023-01-08T19:26:10.408Z,3.88
2023-01-08T19:28:38.408Z,3.87
2023-01-08T19:31:06.017Z,3.77
2023-01-08T19:33:33.664Z,3.84
2023-01-08T19:36:08.840Z,3.89
2023-01-08T19:38:36.419Z,3.94
2023-01-08T19:41:04.441Z,3.93
2023-01-08T19:43:44.175Z,3.98
2023-01-08T19:46:18.609Z,4.03
2023-01-08T19:48:46.117Z,4.06
2023-01-08T19:51:14.023Z,4.10
2023-01-08T19:53:41.788Z,4.09
2023-01-08T19:56:12.008Z,4.13
2023-01-08T19:58:39.899Z,4.09
2023-01-08T20:01:15.313Z,4.17
2023-01-08T20:03:43.888Z,4.17
2023-01-08T20:06:20.357Z,4.17
2023-01-08T20:08:54.280Z,4.16
2023-01-08T20:11:22.806Z,4.17
2023-01-08T20:13:51.074Z,4.17
2023-01-08T20:16:20.754Z,4.19
2023-01-08T20:18:48.655Z,4.21
2023-01-08T20:21:21.086Z,4.19
2023-01-08T20:23:49.065Z,4.19
2023-01-08T20:26:18.677Z,4.16
2023-01-08T20:28:47.012Z,4.23
2023-01-08T20:31:20.579Z,4.20
2023-01-08T20:33:48.941Z,4.23
2023-01-08T20:36:19.833Z,4.22
2023-01-08T20:38:51.566Z,4.25
2023-01-08T20:41:19.418Z,4.24
2023-01-08T20:43:47.885Z,4.28
2023-01-08T20:46:16.152Z,4.24
2023-01-08T20:48:47.856Z,4.28
2023-01-08T20:51:16.140Z,4.32
2023-01-08T20:53:43.673Z,4.34
2023-01-08T20:56:13.295Z,4.37
2023-01-08T20:58:43.564Z,4.42
2023-01-08T21:01:17.259Z,4.45
2023-01-08T21:03:45.164Z,4.41
2023-01-08T21:06:16.188Z,4.42
2023-01-08T21:08:45.906Z,4.46
2023-01-08T21:11:14.193Z,4.41
2023-01-08T21:13:42.349Z,4.39
2023-01-08T21:16:14.297Z,4.41
2023-01-08T21:18:47.190Z,4.42
2023-01-08T21:21:28.763Z,4.39
2023-01-08T21:23:57.275Z,4.37
2023-01-08T21:26:24.999Z,4.36
2023-01-08T21:28:53.188Z,4.37
2023-01-08T21:31:23.399Z,4.33
2023-01-08T21:33:51.535Z,4.33
2023-01-08T21:36:21.872Z,4.37
2023-01-08T21:38:49.956Z,4.32
2023-01-08T21:41:40.727Z,4.30
2023-01-08T21:44:33.494Z,4.35
2023-01-08T21:47:01.993Z,4.40
2023-01-08T21:49:29.692Z,4.35
2023-01-08T21:52:15.624Z,4.44
2023-01-08T21:54:43.706Z,4.41
2023-01-08T21:57:11.291Z,4.43
2023-01-08T21:59:38.829Z,4.40
2023-01-08T22:02:06.804Z,4.43
2023-01-08T22:04:34.324Z,4.43
2023-01-08T22:07:02.396Z,4.38
2023-01-08T22:09:30.172Z,4.39
2023-01-08T22:11:57.677Z,4.35
2023-01-08T22:14:25.227Z,4.32
2023-01-08T22:16:52.718Z,4.32
2023-01-08T22:19:20.780Z,4.33
2023-01-08T22:21:48.198Z,4.22
2023-01-08T22:24:15.757Z,4.28
2023-01-08T22:26:43.327Z,4.40
2023-01-08T22:29:10.777Z,4.39
2023-01-08T22:31:38.339Z,4.40
2023-01-08T22:34:05.734Z,4.35
2023-01-08T22:36:33.719Z,4.25
2023-01-08T22:39:01.218Z,4.21
2023-01-08T22:41:28.680Z,4.22
2023-01-08T22:43:57.188Z,4.19
2023-01-08T22:46:25.292Z,4.29
2023-01-08T22:48:53.139Z,4.29
2023-01-08T22:51:27.777Z,4.23
2023-01-08T22:53:57.042Z,4.21
2023-01-08T22:56:25.259Z,4.24
2023-01-08T22:58:53.242Z,4.22
2023-01-08T23:01:23.928Z,4.27
2023-01-08T23:03:57.094Z,4.27
2023-01-08T23:06:26.930Z,4.34
2023-01-08T23:08:55.500Z,4.36
2023-01-08T23:11:24.299Z,4.40
2023-01-08T23:13:51.979Z,4.36
2023-01-08T23:16:24.316Z,4.37
2023-01-08T23:18:54.239Z,4.31
2023-01-08T23:21:23.952Z,4.30
2023-01-08T23:23:52.302Z,4.35
2023-01-08T23:26:23.377Z,4.40
2023-01-08T23:28:52.735Z,4.45
2023-01-08T23:31:24.208Z,4.46
2023-01-08T23:33:52.701Z,4.41
2023-01-08T23:36:21.517Z,4.36
2023-01-08T23:38:54.298Z,4.40
2023-01-08T23:41:33.055Z,4.32
2023-01-08T23:44:08.007Z,4.48
2023-01-08T23:46:35.672Z,4.29
2023-01-08T23:49:03.684Z,4.27
2023-01-08T23:51:31.256Z,4.29
2023-01-08T23:53:59.400Z,4.31
2023-01-08T23:56:28.120Z,4.37
2023-01-08T23:58:55.652Z,4.36
